sensor_id;sensor_type;location;lat;lon;timestamp;pressure;altitude;pressure_sealevel;temperature;humidity
63405;BME280;49541;57.840;12.306;2023-10-13T00:00:41;100012.06;;;6.91;100.00
63405;BME280;49541;57.840;12.306;2023-10-13T00:05:42;100011.25;;;7.23;100.00
63405;BME280;49541;57.840;12.306;2023-10-13T00:10:42;100016.81;;;7.09;100.00
63405;BME280;49541;57.840;12.306;2023-10-13T00:15:44;100010.63;;;6.87;100.00
63405;BME280;49541;57.840;12.306;2023-10-13T00:20:53;100014.22;;;6.97;100.00
63405;BME280;49541;57.840;12.306;2023-10-13T00:25:56;100007.28;;;6.63;100.00
63405;BME280;49541;57.840;12.306;2023-10-13T00:31:02;100009.53;;;6.90;100.00
63405;BME280;49541;57.840;12.306;2023-10-13T00:36:10;100005.81;;;7.25;100.00
63405;BME280;49541;57.840;12.306;2023-10-13T00:41:17;100003.44;;;7.22;100.00
63405;BME280;49541;57.840;12.306;2023-10-13T00:46:26;99996.84;;;7.05;100.00
63405;BME280;49541;57.840;12.306;2023-10-13T00:51:33;99994.88;;;6.74;100.00
63405;BME280;49541;57.840;12.306;2023-10-13T00:56:35;100006.56;;;6.49;100.00
63405;BME280;49541;57.840;12.306;2023-10-13T01:01:40;100001.25;;;6.72;100.00
63405;BME280;49541;57.840;12.306;2023-10-13T01:06:43;99997.91;;;6.47;100.00
63405;BME280;49541;57.840;12.306;2023-10-13T01:11:46;99989.00;;;6.26;100.00
63405;BME280;49541;57.840;12.306;2023-10-13T01:16:54;99973.50;;;6.10;100.00
63405;BME280;49541;57.840;12.306;2023-10-13T01:21:55;99977.25;;;6.07;100.00
63405;BME280;49541;57.840;12.306;2023-10-13T01:27:07;99980.47;;;6.67;100.00
63405;BME280;49541;57.840;12.306;2023-10-13T01:32:21;99973.09;;;6.71;100.00
63405;BME280;49541;57.840;12.306;2023-10-13T01:37:21;99985.50;;;7.14;100.00
63405;BME280;49541;57.840;12.306;2023-10-13T01:42:21;100007.28;;;6.63;100.00
63405;BME280;49541;57.840;12.306;2023-10-13T01:47:23;100002.00;;;6.18;100.00
63405;BME280;49541;57.840;12.306;2023-10-13T01:52:23;99987.31;;;6.47;100.00
63405;BME280;49541;57.840;12.306;2023-10-13T01:57:25;99983.63;;;7.05;100.00
63405;BME280;49541;57.840;12.306;2023-10-13T02:02:25;99999.09;;;6.32;100.00
63405;BME280;49541;57.840;12.306;2023-10-13T02:07:31;99994.53;;;6.11;100.00
63405;BME280;49541;57.840;12.306;2023-10-13T02:12:34;99989.25;;;6.00;100.00
63405;BME280;49541;57.840;12.306;2023-10-13T02:17:42;99985.91;;;6.43;100.00
63405;BME280;49541;57.840;12.306;2023-10-13T02:22:42;99968.28;;;6.87;100.00
63405;BME280;49541;57.840;12.306;2023-10-13T02:27:49;99958.97;;;6.61;100.00
63405;BME280;49541;57.840;12.306;2023-10-13T02:32:58;99957.59;;;6.78;100.00
63405;BME280;49541;57.840;12.306;2023-10-13T02:38:05;99951.09;;;6.70;100.00
63405;BME280;49541;57.840;12.306;2023-10-13T02:43:10;99947.16;;;6.65;100.00
63405;BME280;49541;57.840;12.306;2023-10-13T02:48:10;99946.91;;;6.68;100.00
63405;BME280;49541;57.840;12.306;2023-10-13T02:53:13;99933.09;;;7.29;100.00
63405;BME280;49541;57.840;12.306;2023-10-13T02:58:13;99931.31;;;7.29;100.00
63405;BME280;49541;57.840;12.306;2023-10-13T03:03:14;99926.25;;;7.26;100.00
63405;BME280;49541;57.840;12.306;2023-10-13T03:08:18;99932.69;;;6.69;100.00
63405;BME280;49541;57.840;12.306;2023-10-13T03:13:26;99927.59;;;7.53;100.00
63405;BME280;49541;57.840;12.306;2023-10-13T03:18:26;99919.97;;;7.90;100.00
63405;BME280;49541;57.840;12.306;2023-10-13T03:23:26;99910.88;;;7.20;100.00
63405;BME280;49541;57.840;12.306;2023-10-13T03:28:27;99917.34;;;6.63;100.00
63405;BME280;49541;57.840;12.306;2023-10-13T03:33:33;99904.69;;;7.10;100.00
63405;BME280;49541;57.840;12.306;2023-10-13T03:38:34;99907.00;;;7.24;100.00
63405;BME280;49541;57.840;12.306;2023-10-13T03:43:36;99899.13;;;7.55;100.00
63405;BME280;49541;57.840;12.306;2023-10-13T03:48:44;99877.69;;;6.84;100.00
63405;BME280;49541;57.840;12.306;2023-10-13T03:53:55;99865.59;;;7.44;100.00
63405;BME280;49541;57.840;12.306;2023-10-13T03:58:55;99854.56;;;7.18;100.00
63405;BME280;49541;57.840;12.306;2023-10-13T04:04:25;99854.91;;;7.04;100.00
63405;BME280;49541;57.840;12.306;2023-10-13T04:09:31;99846.75;;;7.37;100.00
63405;BME280;49541;57.840;12.306;2023-10-13T04:14:32;99832.56;;;7.38;100.00
63405;BME280;49541;57.840;12.306;2023-10-13T04:19:42;99844.38;;;7.65;100.00
63405;BME280;49541;57.840;12.306;2023-10-13T04:25:00;99833.59;;;7.57;100.00
63405;BME280;49541;57.840;12.306;2023-10-13T04:30:01;99833.88;;;7.54;100.00
63405;BME280;49541;57.840;12.306;2023-10-13T04:35:07;99834.31;;;7.59;100.00
63405;BME280;49541;57.840;12.306;2023-10-13T04:40:18;99828.25;;;7.78;100.00
63405;BME280;49541;57.840;12.306;2023-10-13T04:45:24;99825.16;;;8.04;100.00
63405;BME280;49541;57.840;12.306;2023-10-13T04:50:38;99810.81;;;7.75;100.00
63405;BME280;49541;57.840;12.306;2023-10-13T04:55:48;99795.34;;;8.31;100.00
63405;BME280;49541;57.840;12.306;2023-10-13T05:01:03;99789.06;;;8.32;100.00
63405;BME280;49541;57.840;12.306;2023-10-13T05:06:23;99775.06;;;8.10;100.00
63405;BME280;49541;57.840;12.306;2023-10-13T05:11:43;99773.03;;;8.43;100.00
63405;BME280;49541;57.840;12.306;2023-10-13T05:17:02;99759.09;;;8.41;100.00
63405;BME280;49541;57.840;12.306;2023-10-13T05:22:21;99751.41;;;8.57;100.00
63405;BME280;49541;57.840;12.306;2023-10-13T05:27:40;99743.97;;;8.90;100.00
63405;BME280;49541;57.840;12.306;2023-10-13T05:32:59;99733.81;;;8.76;100.00
63405;BME280;49541;57.840;12.306;2023-10-13T05:38:18;99726.25;;;8.81;100.00
63405;BME280;49541;57.840;12.306;2023-10-13T05:43:37;99713.34;;;9.43;100.00
63405;BME280;49541;57.840;12.306;2023-10-13T05:48:56;99714.16;;;9.71;100.00
63405;BME280;49541;57.840;12.306;2023-10-13T05:53:59;99711.50;;;9.99;100.00
63405;BME280;49541;57.840;12.306;2023-10-13T05:59:15;99709.75;;;9.62;100.00
63405;BME280;49541;57.840;12.306;2023-10-13T06:04:33;99710.31;;;9.28;100.00
63405;BME280;49541;57.840;12.306;2023-10-13T06:09:52;99699.03;;;9.54;100.00
63405;BME280;49541;57.840;12.306;2023-10-13T06:15:11;99688.75;;;9.87;100.00
63405;BME280;49541;57.840;12.306;2023-10-13T06:20:30;99697.44;;;9.61;100.00
63405;BME280;49541;57.840;12.306;2023-10-13T06:25:50;99681.47;;;9.89;100.00
63405;BME280;49541;57.840;12.306;2023-10-13T06:31:09;99679.34;;;10.10;100.00
63405;BME280;49541;57.840;12.306;2023-10-13T06:36:22;99676.69;;;10.46;100.00
63405;BME280;49541;57.840;12.306;2023-10-13T06:41:22;99687.41;;;10.36;100.00
63405;BME280;49541;57.840;12.306;2023-10-13T06:46:30;99672.94;;;10.31;100.00
63405;BME280;49541;57.840;12.306;2023-10-13T06:51:33;99671.34;;;10.90;100.00
63405;BME280;49541;57.840;12.306;2023-10-13T06:56:41;99660.47;;;11.10;100.00
63405;BME280;49541;57.840;12.306;2023-10-13T07:01:41;99665.25;;;10.72;100.00
63405;BME280;49541;57.840;12.306;2023-10-13T07:06:42;99657.56;;;11.29;100.00
63405;BME280;49541;57.840;12.306;2023-10-13T07:11:48;99653.09;;;11.38;100.00
63405;BME280;49541;57.840;12.306;2023-10-13T07:16:56;99652.00;;;10.80;100.00
63405;BME280;49541;57.840;12.306;2023-10-13T07:22:00;99653.97;;;10.78;100.00
63405;BME280;49541;57.840;12.306;2023-10-13T07:27:19;99640.44;;;11.40;100.00
63405;BME280;49541;57.840;12.306;2023-10-13T07:32:25;99638.16;;;11.61;100.00
63405;BME280;49541;57.840;12.306;2023-10-13T07:37:26;99617.66;;;11.45;100.00
63405;BME280;49541;57.840;12.306;2023-10-13T07:42:29;99607.78;;;11.97;100.00
63405;BME280;49541;57.840;12.306;2023-10-13T07:47:39;99592.75;;;11.96;100.00
63405;BME280;49541;57.840;12.306;2023-10-13T07:52:39;99589.06;;;11.80;100.00
63405;BME280;49541;57.840;12.306;2023-10-13T07:57:59;99593.03;;;11.60;100.00
63405;BME280;49541;57.840;12.306;2023-10-13T08:02:59;99583.34;;;11.51;100.00
63405;BME280;49541;57.840;12.306;2023-10-13T08:08:19;99577.34;;;11.48;100.00
63405;BME280;49541;57.840;12.306;2023-10-13T08:13:21;99558.53;;;11.58;100.00
63405;BME280;49541;57.840;12.306;2023-10-13T08:18:22;99544.91;;;11.86;100.00
63405;BME280;49541;57.840;12.306;2023-10-13T08:23:32;99536.06;;;11.69;100.00
63405;BME280;49541;57.840;12.306;2023-10-13T08:28:51;99521.75;;;12.11;100.00
63405;BME280;49541;57.840;12.306;2023-10-13T08:33:54;99501.09;;;12.13;100.00
63405;BME280;49541;57.840;12.306;2023-10-13T08:39:05;99501.03;;;12.29;100.00
63405;BME280;49541;57.840;12.306;2023-10-13T08:44:25;99480.69;;;12.28;100.00
63405;BME280;49541;57.840;12.306;2023-10-13T08:49:32;99471.53;;;12.23;100.00
63405;BME280;49541;57.840;12.306;2023-10-13T08:54:40;99465.63;;;12.52;100.00
63405;BME280;49541;57.840;12.306;2023-10-13T08:59:46;99442.72;;;12.58;100.00
63405;BME280;49541;57.840;12.306;2023-10-13T09:04:55;99431.75;;;12.44;100.00
63405;BME280;49541;57.840;12.306;2023-10-13T09:10:09;99436.41;;;12.50;100.00
63405;BME280;49541;57.840;12.306;2023-10-13T09:15:32;99412.00;;;12.22;100.00
63405;BME280;49541;57.840;12.306;2023-10-13T09:20:59;99416.50;;;12.22;100.00
63405;BME280;49541;57.840;12.306;2023-10-13T09:26:19;99407.31;;;12.33;100.00
63405;BME280;49541;57.840;12.306;2023-10-13T09:31:21;99382.56;;;11.99;100.00
63405;BME280;49541;57.840;12.306;2023-10-13T09:36:26;99369.19;;;12.16;100.00
63405;BME280;49541;57.840;12.306;2023-10-13T09:41:27;99365.28;;;12.26;100.00
63405;BME280;49541;57.840;12.306;2023-10-13T09:46:32;99348.94;;;12.29;100.00
63405;BME280;49541;57.840;12.306;2023-10-13T09:51:35;99324.69;;;12.00;100.00
63405;BME280;49541;57.840;12.306;2023-10-13T09:56:37;99309.06;;;12.28;100.00
63405;BME280;49541;57.840;12.306;2023-10-13T10:01:51;99295.81;;;12.43;100.00
63405;BME280;49541;57.840;12.306;2023-10-13T10:06:58;99288.78;;;12.50;100.00
63405;BME280;49541;57.840;12.306;2023-10-13T10:17:08;99258.78;;;12.86;100.00
63405;BME280;49541;57.840;12.306;2023-10-13T10:22:08;99238.69;;;12.75;100.00
63405;BME280;49541;57.840;12.306;2023-10-13T10:27:24;99213.28;;;12.41;100.00
63405;BME280;49541;57.840;12.306;2023-10-13T10:32:34;99192.91;;;12.17;100.00
63405;BME280;49541;57.840;12.306;2023-10-13T10:37:35;99173.16;;;12.03;100.00
63405;BME280;49541;57.840;12.306;2023-10-13T10:42:36;99153.59;;;11.48;100.00
63405;BME280;49541;57.840;12.306;2023-10-13T10:47:47;99136.59;;;12.35;100.00
63405;BME280;49541;57.840;12.306;2023-10-13T10:52:47;99116.59;;;12.31;100.00
63405;BME280;49541;57.840;12.306;2023-10-13T10:57:57;99088.75;;;11.87;100.00
63405;BME280;49541;57.840;12.306;2023-10-13T11:02:58;99076.09;;;11.90;100.00
63405;BME280;49541;57.840;12.306;2023-10-13T11:07:58;99067.84;;;12.37;100.00
63405;BME280;49541;57.840;12.306;2023-10-13T11:12:59;99051.91;;;11.91;100.00
63405;BME280;49541;57.840;12.306;2023-10-13T11:18:12;99041.22;;;11.91;100.00
63405;BME280;49541;57.840;12.306;2023-10-13T11:23:17;99022.97;;;12.03;100.00
63405;BME280;49541;57.840;12.306;2023-10-13T11:28:17;98993.53;;;11.50;100.00
63405;BME280;49541;57.840;12.306;2023-10-13T11:33:18;98974.28;;;11.40;100.00
63405;BME280;49541;57.840;12.306;2023-10-13T11:38:24;98954.38;;;11.51;100.00
63405;BME280;49541;57.840;12.306;2023-10-13T11:43:27;98945.09;;;11.84;100.00
63405;BME280;49541;57.840;12.306;2023-10-13T11:48:27;98922.97;;;11.61;100.00
63405;BME280;49541;57.840;12.306;2023-10-13T11:53:37;98903.22;;;11.55;100.00
63405;BME280;49541;57.840;12.306;2023-10-13T11:58:37;98892.84;;;11.60;100.00
63405;BME280;49541;57.840;12.306;2023-10-13T12:03:38;98877.91;;;11.36;100.00
63405;BME280;49541;57.840;12.306;2023-10-13T12:08:57;98856.28;;;11.31;100.00
63405;BME280;49541;57.840;12.306;2023-10-13T12:14:11;98835.28;;;11.36;100.00
63405;BME280;49541;57.840;12.306;2023-10-13T12:19:17;98823.53;;;11.45;100.00
63405;BME280;49541;57.840;12.306;2023-10-13T12:24:17;98795.00;;;11.31;100.00
63405;BME280;49541;57.840;12.306;2023-10-13T12:29:36;98778.97;;;11.69;100.00
63405;BME280;49541;57.840;12.306;2023-10-13T12:34:36;98755.44;;;11.28;100.00
63405;BME280;49541;57.840;12.306;2023-10-13T12:39:55;98739.81;;;11.55;100.00
63405;BME280;49541;57.840;12.306;2023-10-13T12:45:14;98713.94;;;11.34;100.00
63405;BME280;49541;57.840;12.306;2023-10-13T12:50:33;98690.13;;;11.17;100.00
63405;BME280;49541;57.840;12.306;2023-10-13T12:55:44;98664.47;;;11.31;100.00
63405;BME280;49541;57.840;12.306;2023-10-13T13:00:44;98621.16;;;11.74;100.00
63405;BME280;49541;57.840;12.306;2023-10-13T13:05:48;98600.06;;;11.94;100.00
63405;BME280;49541;57.840;12.306;2023-10-13T13:10:49;98567.50;;;11.98;100.00
63405;BME280;49541;57.840;12.306;2023-10-13T13:15:49;98557.22;;;11.59;100.00
63405;BME280;49541;57.840;12.306;2023-10-13T13:20:49;98535.72;;;11.82;100.00
63405;BME280;49541;57.840;12.306;2023-10-13T13:25:56;98497.91;;;11.50;100.00
63405;BME280;49541;57.840;12.306;2023-10-13T13:30:56;98458.13;;;11.48;100.00
63405;BME280;49541;57.840;12.306;2023-10-13T13:35:57;98427.63;;;11.51;100.00
63405;BME280;49541;57.840;12.306;2023-10-13T13:40:59;98388.91;;;11.55;100.00
63405;BME280;49541;57.840;12.306;2023-10-13T13:46:02;98381.06;;;11.25;100.00
63405;BME280;49541;57.840;12.306;2023-10-13T13:51:06;98342.56;;;11.28;100.00
63405;BME280;49541;57.840;12.306;2023-10-13T13:56:14;98313.91;;;11.30;100.00
63405;BME280;49541;57.840;12.306;2023-10-13T14:01:16;98291.63;;;11.38;100.00
63405;BME280;49541;57.840;12.306;2023-10-13T14:06:21;98270.66;;;11.91;100.00
63405;BME280;49541;57.840;12.306;2023-10-13T14:11:27;98245.06;;;11.62;100.00
63405;BME280;49541;57.840;12.306;2023-10-13T14:16:40;98213.63;;;11.85;100.00
63405;BME280;49541;57.840;12.306;2023-10-13T14:21:47;98166.34;;;12.07;100.00
63405;BME280;49541;57.840;12.306;2023-10-13T14:26:54;98152.38;;;11.99;100.00
63405;BME280;49541;57.840;12.306;2023-10-13T14:31:54;98118.66;;;11.84;100.00
63405;BME280;49541;57.840;12.306;2023-10-13T14:36:54;98105.19;;;11.93;100.00
63405;BME280;49541;57.840;12.306;2023-10-13T14:41:54;98052.31;;;12.23;100.00
63405;BME280;49541;57.840;12.306;2023-10-13T14:46:54;98047.75;;;12.77;100.00
63405;BME280;49541;57.840;12.306;2023-10-13T14:51:55;98018.09;;;13.05;100.00
63405;BME280;49541;57.840;12.306;2023-10-13T14:56:55;97981.53;;;12.20;100.00
63405;BME280;49541;57.840;12.306;2023-10-13T15:01:56;97973.25;;;12.62;100.00
63405;BME280;49541;57.840;12.306;2023-10-13T15:06:56;97966.81;;;12.83;100.00
63405;BME280;49541;57.840;12.306;2023-10-13T15:11:56;97955.84;;;13.04;100.00
63405;BME280;49541;57.840;12.306;2023-10-13T15:16:56;97941.31;;;13.39;100.00
63405;BME280;49541;57.840;12.306;2023-10-13T15:22:00;97925.63;;;13.10;100.00
63405;BME280;49541;57.840;12.306;2023-10-13T15:27:00;97911.06;;;13.45;100.00
63405;BME280;49541;57.840;12.306;2023-10-13T15:32:02;97906.19;;;13.35;100.00
63405;BME280;49541;57.840;12.306;2023-10-13T15:37:02;97900.53;;;13.50;100.00
63405;BME280;49541;57.840;12.306;2023-10-13T15:42:05;97887.47;;;13.67;100.00
63405;BME280;49541;57.840;12.306;2023-10-13T15:47:05;97883.72;;;13.75;100.00
63405;BME280;49541;57.840;12.306;2023-10-13T15:52:06;97876.44;;;13.82;100.00
63405;BME280;49541;57.840;12.306;2023-10-13T15:57:07;97869.09;;;13.96;100.00
63405;BME280;49541;57.840;12.306;2023-10-13T16:02:08;97855.19;;;14.30;100.00
63405;BME280;49541;57.840;12.306;2023-10-13T16:07:11;97882.81;;;14.43;100.00
63405;BME280;49541;57.840;12.306;2023-10-13T16:12:12;97886.84;;;14.70;100.00
63405;BME280;49541;57.840;12.306;2023-10-13T16:17:15;97896.31;;;15.03;100.00
63405;BME280;49541;57.840;12.306;2023-10-13T16:22:15;97899.19;;;15.20;100.00
63405;BME280;49541;57.840;12.306;2023-10-13T16:27:15;97885.09;;;15.25;100.00
63405;BME280;49541;57.840;12.306;2023-10-13T16:32:15;97849.44;;;15.24;100.00
63405;BME280;49541;57.840;12.306;2023-10-13T16:37:17;97852.94;;;15.25;100.00
63405;BME280;49541;57.840;12.306;2023-10-13T16:42:17;97848.44;;;15.37;100.00
63405;BME280;49541;57.840;12.306;2023-10-13T16:47:17;97838.41;;;15.44;100.00
63405;BME280;49541;57.840;12.306;2023-10-13T16:52:17;97841.44;;;15.36;100.00
63405;BME280;49541;57.840;12.306;2023-10-13T16:57:17;97857.84;;;15.28;100.00
63405;BME280;49541;57.840;12.306;2023-10-13T17:02:17;97861.06;;;15.18;100.00
63405;BME280;49541;57.840;12.306;2023-10-13T17:07:18;97884.69;;;15.09;100.00
63405;BME280;49541;57.840;12.306;2023-10-13T17:12:18;97886.78;;;15.07;100.00
63405;BME280;49541;57.840;12.306;2023-10-13T17:17:19;97905.00;;;14.87;100.00
63405;BME280;49541;57.840;12.306;2023-10-13T17:22:20;97902.16;;;14.82;100.00
63405;BME280;49541;57.840;12.306;2023-10-13T17:27:21;97901.56;;;14.80;100.00
63405;BME280;49541;57.840;12.306;2023-10-13T17:32:22;97925.53;;;14.74;100.00
63405;BME280;49541;57.840;12.306;2023-10-13T17:37:23;97953.34;;;14.73;100.00
63405;BME280;49541;57.840;12.306;2023-10-13T17:42:23;97942.19;;;14.77;100.00
63405;BME280;49541;57.840;12.306;2023-10-13T17:47:23;97944.13;;;14.69;100.00
63405;BME280;49541;57.840;12.306;2023-10-13T17:52:26;97948.28;;;14.65;100.00
63405;BME280;49541;57.840;12.306;2023-10-13T17:57:26;97945.44;;;14.60;100.00
63405;BME280;49541;57.840;12.306;2023-10-13T18:02:28;97952.78;;;14.46;100.00
63405;BME280;49541;57.840;12.306;2023-10-13T18:07:28;97954.56;;;14.52;100.00
63405;BME280;49541;57.840;12.306;2023-10-13T18:12:29;97958.53;;;14.50;100.00
63405;BME280;49541;57.840;12.306;2023-10-13T18:17:29;97972.19;;;14.42;100.00
63405;BME280;49541;57.840;12.306;2023-10-13T18:22:32;97979.34;;;14.48;100.00
63405;BME280;49541;57.840;12.306;2023-10-13T18:27:32;97995.06;;;14.38;100.00
63405;BME280;49541;57.840;12.306;2023-10-13T18:32:32;97988.47;;;14.40;100.00
63405;BME280;49541;57.840;12.306;2023-10-13T18:37:32;97998.41;;;14.33;100.00
63405;BME280;49541;57.840;12.306;2023-10-13T18:42:35;97998.47;;;14.26;100.00
63405;BME280;49541;57.840;12.306;2023-10-13T18:47:41;98021.63;;;14.14;100.00
63405;BME280;49541;57.840;12.306;2023-10-13T18:52:44;98032.03;;;13.97;100.00
63405;BME280;49541;57.840;12.306;2023-10-13T18:57:45;98028.59;;;14.15;100.00
63405;BME280;49541;57.840;12.306;2023-10-13T19:02:48;98044.84;;;13.88;100.00
63405;BME280;49541;57.840;12.306;2023-10-13T19:07:51;98040.97;;;13.84;100.00
63405;BME280;49541;57.840;12.306;2023-10-13T19:12:52;98034.50;;;13.99;100.00
63405;BME280;49541;57.840;12.306;2023-10-13T19:17:54;98025.06;;;13.89;100.00
63405;BME280;49541;57.840;12.306;2023-10-13T19:22:54;98040.06;;;13.59;100.00
63405;BME280;49541;57.840;12.306;2023-10-13T19:27:55;98061.94;;;13.49;100.00
63405;BME280;49541;57.840;12.306;2023-10-13T19:32:55;98085.03;;;13.30;100.00
63405;BME280;49541;57.840;12.306;2023-10-13T19:37:56;98092.84;;;13.11;100.00
63405;BME280;49541;57.840;12.306;2023-10-13T19:42:56;98083.19;;;13.10;100.00
63405;BME280;49541;57.840;12.306;2023-10-13T19:47:56;98042.78;;;12.94;100.00
63405;BME280;49541;57.840;12.306;2023-10-13T19:52:57;98044.84;;;12.85;100.00
63405;BME280;49541;57.840;12.306;2023-10-13T19:58:00;98040.50;;;12.97;100.00
63405;BME280;49541;57.840;12.306;2023-10-13T20:03:00;98047.66;;;13.03;100.00
63405;BME280;49541;57.840;12.306;2023-10-13T20:08:00;98027.53;;;13.07;100.00
63405;BME280;49541;57.840;12.306;2023-10-13T20:13:04;98059.59;;;12.94;100.00
63405;BME280;49541;57.840;12.306;2023-10-13T20:18:05;98064.16;;;12.80;100.00
63405;BME280;49541;57.840;12.306;2023-10-13T20:23:08;98070.75;;;12.84;100.00
63405;BME280;49541;57.840;12.306;2023-10-13T20:28:12;98056.31;;;12.92;100.00
63405;BME280;49541;57.840;12.306;2023-10-13T20:33:14;98050.94;;;13.12;100.00
63405;BME280;49541;57.840;12.306;2023-10-13T20:38:19;98036.34;;;13.15;100.00
63405;BME280;49541;57.840;12.306;2023-10-13T20:43:20;98028.69;;;13.25;100.00
63405;BME280;49541;57.840;12.306;2023-10-13T20:48:22;98027.06;;;13.24;100.00
63405;BME280;49541;57.840;12.306;2023-10-13T20:53:24;98028.06;;;13.36;100.00
63405;BME280;49541;57.840;12.306;2023-10-13T20:58:27;98034.06;;;13.31;100.00
63405;BME280;49541;57.840;12.306;2023-10-13T21:03:27;98034.25;;;13.30;100.00
63405;BME280;49541;57.840;12.306;2023-10-13T21:08:28;98050.09;;;13.18;100.00
63405;BME280;49541;57.840;12.306;2023-10-13T21:13:28;98075.66;;;12.81;100.00
63405;BME280;49541;57.840;12.306;2023-10-13T21:18:29;98084.53;;;12.48;100.00
63405;BME280;49541;57.840;12.306;2023-10-13T21:23:29;98050.47;;;12.50;100.00
63405;BME280;49541;57.840;12.306;2023-10-13T21:28:30;98052.28;;;12.43;100.00
63405;BME280;49541;57.840;12.306;2023-10-13T21:33:32;98051.28;;;12.31;100.00
63405;BME280;49541;57.840;12.306;2023-10-13T21:38:32;98074.06;;;12.33;100.00
63405;BME280;49541;57.840;12.306;2023-10-13T21:43:33;98099.47;;;12.02;100.00
63405;BME280;49541;57.840;12.306;2023-10-13T21:48:34;98076.78;;;11.72;100.00
63405;BME280;49541;57.840;12.306;2023-10-13T21:53:37;98066.56;;;11.68;100.00
63405;BME280;49541;57.840;12.306;2023-10-13T21:58:38;98047.66;;;11.63;100.00
63405;BME280;49541;57.840;12.306;2023-10-13T22:03:38;98053.06;;;11.83;100.00
63405;BME280;49541;57.840;12.306;2023-10-13T22:08:39;98026.88;;;12.00;100.00
63405;BME280;49541;57.840;12.306;2023-10-13T22:13:39;98013.72;;;12.05;100.00
63405;BME280;49541;57.840;12.306;2023-10-13T22:18:41;98010.03;;;12.06;100.00
63405;BME280;49541;57.840;12.306;2023-10-13T22:23:42;98004.28;;;12.16;100.00
63405;BME280;49541;57.840;12.306;2023-10-13T22:28:42;97993.00;;;12.27;100.00
63405;BME280;49541;57.840;12.306;2023-10-13T22:33:44;98001.41;;;12.38;100.00
63405;BME280;49541;57.840;12.306;2023-10-13T22:38:44;97997.50;;;12.47;100.00
63405;BME280;49541;57.840;12.306;2023-10-13T22:43:44;97979.88;;;12.39;100.00
63405;BME280;49541;57.840;12.306;2023-10-13T22:48:47;97976.59;;;12.37;100.00
63405;BME280;49541;57.840;12.306;2023-10-13T22:53:48;97979.25;;;12.17;100.00
63405;BME280;49541;57.840;12.306;2023-10-13T22:58:49;97997.94;;;12.24;100.00
63405;BME280;49541;57.840;12.306;2023-10-13T23:03:49;97986.25;;;12.18;100.00
63405;BME280;49541;57.840;12.306;2023-10-13T23:08:55;98010.06;;;12.20;100.00
63405;BME280;49541;57.840;12.306;2023-10-13T23:13:56;97996.06;;;12.38;100.00
63405;BME280;49541;57.840;12.306;2023-10-13T23:18:57;98005.34;;;12.22;100.00
63405;BME280;49541;57.840;12.306;2023-10-13T23:24:00;98009.44;;;12.24;100.00
63405;BME280;49541;57.840;12.306;2023-10-13T23:29:00;98004.06;;;12.38;100.00
63405;BME280;49541;57.840;12.306;2023-10-13T23:34:00;97993.63;;;12.29;100.00
63405;BME280;49541;57.840;12.306;2023-10-13T23:39:01;98001.84;;;12.08;100.00
63405;BME280;49541;57.840;12.306;2023-10-13T23:44:09;98004.91;;;11.98;100.00
63405;BME280;49541;57.840;12.306;2023-10-13T23:49:15;97990.34;;;12.14;100.00
63405;BME280;49541;57.840;12.306;2023-10-13T23:54:19;97979.69;;;12.14;100.00
63405;BME280;49541;57.840;12.306;2023-10-13T23:59:19;97973.31;;;12.02;100.00
